createdAt,value
2022-08-09T00:01:00.247Z,1.90
2022-08-09T00:04:03.773Z,1.90
2022-08-09T00:06:23.316Z,1.83
2022-08-09T00:11:25.050Z,2.10
2022-08-09T00:13:56.379Z,1.70
2022-08-09T00:16:36.695Z,1.67
2022-08-09T00:19:09.239Z,1.97
2022-08-09T00:21:55.713Z,2.00
2022-08-09T00:24:27.203Z,1.90
2022-08-09T00:26:57.318Z,1.80
2022-08-09T00:30:09.715Z,2.20
2022-08-09T00:32:26.733Z,1.90
2022-08-09T00:35:05.749Z,1.70
2022-08-09T00:37:35.233Z,1.53
2022-08-09T00:40:12.362Z,1.60
2022-08-09T00:44:16.133Z,2.20
2022-08-09T00:45:35.184Z,1.80
2022-08-09T00:48:05.911Z,2.10
2022-08-09T00:50:37.892Z,1.80
2022-08-09T00:53:10.532Z,2.33
2022-08-09T00:56:03.809Z,2.30
2022-08-09T00:58:30.816Z,2.50
2022-08-09T01:01:00.448Z,1.93
2022-08-09T01:03:45.708Z,2.10
2022-08-09T01:06:25.527Z,1.97
2022-08-09T01:09:13.165Z,1.97
2022-08-09T01:11:55.662Z,1.83
2022-08-09T01:14:32.808Z,1.90
2022-08-09T01:17:08.828Z,1.80
2022-08-09T01:20:02.130Z,1.87
2022-08-09T01:22:54.700Z,1.70
2022-08-09T01:25:42.180Z,1.93
2022-08-09T01:28:18.983Z,2.22
2022-08-09T01:30:51.582Z,2.17
2022-08-09T01:33:25.860Z,1.90
2022-08-09T01:36:03.295Z,2.07
2022-08-09T01:38:38.583Z,1.90
2022-08-09T01:41:13.967Z,1.80
2022-08-09T01:43:51.070Z,2.10
2022-08-09T01:46:26.932Z,2.00
2022-08-09T01:48:59.804Z,2.20
2022-08-09T01:51:32.192Z,2.42
2022-08-09T01:54:04.733Z,2.00
2022-08-09T01:56:36.630Z,2.03
2022-08-09T01:59:10.227Z,1.97
2022-08-09T02:01:59.988Z,1.95
2022-08-09T02:04:33.275Z,2.20
2022-08-09T02:07:08.693Z,2.00
2022-08-09T02:09:59.895Z,1.80
2022-08-09T02:12:32.924Z,2.10
2022-08-09T02:15:06.327Z,2.07
2022-08-09T02:18:00.251Z,2.20
2022-08-09T02:20:32.826Z,2.00
2022-08-09T02:23:07.364Z,2.40
2022-08-09T02:25:42.533Z,1.98
2022-08-09T02:28:24.243Z,2.40
2022-08-09T02:31:01.210Z,2.07
2022-08-09T02:33:38.443Z,2.20
2022-08-09T02:36:30.882Z,2.33
2022-08-09T02:39:04.385Z,2.20
2022-08-09T02:41:40.957Z,2.23
2022-08-09T02:44:29.570Z,2.13
2022-08-09T02:47:04.645Z,2.10
2022-08-09T02:49:38.839Z,1.93
2022-08-09T02:52:15.289Z,2.07
2022-08-09T02:54:54.524Z,2.00
2022-08-09T02:57:27.915Z,2.40
2022-08-09T03:00:20.591Z,1.93
2022-08-09T03:02:58.482Z,2.30
2022-08-09T03:05:34.757Z,2.43
2022-08-09T03:08:05.456Z,2.33
2022-08-09T03:10:36.536Z,2.00
2022-08-09T03:13:08.456Z,2.07
2022-08-09T03:16:06.333Z,2.10
2022-08-09T03:18:31.131Z,2.50
2022-08-09T03:21:02.624Z,2.07
2022-08-09T03:23:31.856Z,2.20
2022-08-09T03:26:03.401Z,2.03
2022-08-09T03:28:36.070Z,2.33
2022-08-09T03:31:10.492Z,2.00
2022-08-09T03:33:54.588Z,2.10
2022-08-09T03:36:27.535Z,1.83
2022-08-09T03:38:57.108Z,2.20
2022-08-09T03:41:30.306Z,2.10
2022-08-09T03:44:15.547Z,2.10
2022-08-09T03:46:44.340Z,2.20
2022-08-09T03:49:18.937Z,2.50
2022-08-09T03:51:56.697Z,1.77
2022-08-09T03:54:32.103Z,2.10
2022-08-09T03:57:04.481Z,2.35
2022-08-09T03:59:54.858Z,2.13
2022-08-09T04:02:27.946Z,2.03
2022-08-09T04:05:06.398Z,2.10
2022-08-09T04:07:52.476Z,2.43
2022-08-09T04:10:29.658Z,2.17
2022-08-09T04:13:00.699Z,2.40
2022-08-09T04:15:52.460Z,2.07
2022-08-09T04:18:21.285Z,2.03
2022-08-09T04:20:51.214Z,2.17
2022-08-09T04:23:24.442Z,2.03
2022-08-09T04:25:54.771Z,2.15
2022-08-09T04:28:34.315Z,2.47
2022-08-09T04:31:09.055Z,2.10
2022-08-09T04:33:51.566Z,2.35
2022-08-09T04:36:24.746Z,2.70
2022-08-09T04:38:54.540Z,2.37
2022-08-09T04:41:31.981Z,2.40
2022-08-09T04:44:06.328Z,2.30
2022-08-09T04:46:57.209Z,2.43
2022-08-09T04:49:53.319Z,2.23
2022-08-09T04:52:22.105Z,2.22
2022-08-09T04:54:56.293Z,2.00
2022-08-09T04:57:25.628Z,2.30
2022-08-09T04:59:56.061Z,2.10
2022-08-09T05:02:27.571Z,2.63
2022-08-09T05:04:56.442Z,2.53
2022-08-09T05:07:29.335Z,2.50
2022-08-09T05:10:01.649Z,2.23
2022-08-09T05:12:33.153Z,2.70
2022-08-09T05:15:03.852Z,2.27
2022-08-09T05:18:37.691Z,2.50
2022-08-09T05:20:30.469Z,2.60
2022-08-09T05:23:54.787Z,2.30
2022-08-09T05:25:50.706Z,2.40
2022-08-09T05:28:20.670Z,2.60
2022-08-09T05:30:49.329Z,2.37
2022-08-09T05:33:26.466Z,2.43
2022-08-09T05:36:03.444Z,2.30
2022-08-09T05:38:32.671Z,2.33
2022-08-09T05:41:01.242Z,2.70
2022-08-09T05:43:31.868Z,2.70
2022-08-09T05:46:01.205Z,2.50
2022-08-09T05:48:33.147Z,2.47
2022-08-09T05:51:43.124Z,2.20
2022-08-09T05:53:57.405Z,2.37
2022-08-09T05:56:27.653Z,2.20
2022-08-09T05:58:58.342Z,2.47
2022-08-09T06:01:34.081Z,2.30
2022-08-09T06:04:12.294Z,2.42
2022-08-09T06:06:46.712Z,2.47
2022-08-09T06:09:40.890Z,3.33
2022-08-09T06:12:09.114Z,2.37
2022-08-09T06:14:37.719Z,2.57
2022-08-09T06:17:09.573Z,2.77
2022-08-09T06:19:39.120Z,2.80
2022-08-09T06:22:15.357Z,2.70
2022-08-09T06:24:44.687Z,2.73
2022-08-09T06:27:15.624Z,2.40
2022-08-09T06:29:48.348Z,2.60
2022-08-09T06:32:53.486Z,2.73
2022-08-09T06:35:22.117Z,2.43
2022-08-09T06:38:11.295Z,2.13
2022-08-09T06:43:12.977Z,2.80
2022-08-09T06:46:06.834Z,2.80
2022-08-09T06:48:31.306Z,2.57
2022-08-09T06:51:00.158Z,2.50
2022-08-09T06:53:33.371Z,2.57
2022-08-09T06:56:09.292Z,2.90
2022-08-09T07:00:47.719Z,2.60
2022-08-09T07:01:35.665Z,2.37
2022-08-09T07:04:19.762Z,3.13
2022-08-09T07:06:53.416Z,3.37
2022-08-09T07:09:55.013Z,2.97
2022-08-09T07:12:20.092Z,2.70
2022-08-09T07:14:50.698Z,2.47
2022-08-09T07:17:21.712Z,2.53
2022-08-09T07:19:55.433Z,2.40
2022-08-09T07:22:34.225Z,2.50
2022-08-09T07:25:09.821Z,3.03
2022-08-09T07:27:42.633Z,2.60
2022-08-09T07:30:24.753Z,2.73
2022-08-09T07:32:55.298Z,2.80
2022-08-09T07:35:25.686Z,2.90
2022-08-09T07:37:59.592Z,2.37
2022-08-09T07:40:37.308Z,2.60
2022-08-09T07:43:17.434Z,2.60
2022-08-09T07:45:46.309Z,2.13
2022-08-09T07:48:22.580Z,1.97
2022-08-09T07:54:05.044Z,2.00
2022-08-09T07:56:48.697Z,2.00
2022-08-09T07:59:34.302Z,2.20
2022-08-09T08:02:19.781Z,2.00
2022-08-09T08:04:49.413Z,2.00
2022-08-09T08:08:06.510Z,2.30
2022-08-09T08:10:11.865Z,2.00
2022-08-09T08:12:45.571Z,2.67
2022-08-09T08:15:17.541Z,2.50
2022-08-09T08:17:54.741Z,3.17
2022-08-09T08:20:28.702Z,2.23
2022-08-09T08:23:03.772Z,2.27
2022-08-09T08:25:49.859Z,2.53
2022-08-09T08:28:32.270Z,2.63
2022-08-09T08:31:08.836Z,2.47
2022-08-09T08:33:53.001Z,2.87
2022-08-09T08:36:28.810Z,2.15
2022-08-09T08:39:00.488Z,2.20
2022-08-09T08:41:50.896Z,2.17
2022-08-09T08:44:26.927Z,2.13
2022-08-09T08:47:02.166Z,2.90
2022-08-09T08:49:46.432Z,2.17
2022-08-09T08:52:58.473Z,2.50
2022-08-09T08:55:10.670Z,2.23
2022-08-09T08:57:39.455Z,2.63
2022-08-09T09:00:17.083Z,2.10
2022-08-09T09:02:52.486Z,2.40
2022-08-09T09:05:57.810Z,2.60
2022-08-09T09:08:30.048Z,2.83
2022-08-09T09:11:03.725Z,2.37
2022-08-09T09:13:54.911Z,1.90
2022-08-09T09:16:30.659Z,3.20
2022-08-09T09:19:37.745Z,2.70
2022-08-09T09:22:04.099Z,2.40
2022-08-09T09:24:37.811Z,2.37
2022-08-09T09:27:08.757Z,2.70
2022-08-09T09:30:14.091Z,2.77
2022-08-09T09:32:34.549Z,2.50
2022-08-09T09:35:07.504Z,2.30
2022-08-09T09:37:40.402Z,2.77
2022-08-09T09:40:12.296Z,2.63
2022-08-09T09:42:46.366Z,2.20
2022-08-09T09:48:03.313Z,2.27
2022-08-09T09:50:49.559Z,3.17
2022-08-09T09:53:34.379Z,2.47
2022-08-09T09:56:20.067Z,2.50
2022-08-09T09:59:00.743Z,2.20
2022-08-09T10:01:30.175Z,2.33
2022-08-09T10:04:15.945Z,2.50
2022-08-09T10:06:52.063Z,2.33
2022-08-09T10:09:24.094Z,2.50
2022-08-09T10:12:14.315Z,2.00
2022-08-09T10:14:51.756Z,1.90
2022-08-09T10:17:55.033Z,2.13
2022-08-09T10:20:32.851Z,1.77
2022-08-09T10:23:22.311Z,2.30
2022-08-09T10:26:07.840Z,1.93
2022-08-09T10:28:41.403Z,2.07
2022-08-09T10:32:27.895Z,2.13
2022-08-09T10:34:10.187Z,1.83
2022-08-09T10:36:55.795Z,2.30
2022-08-09T10:39:26.900Z,2.70
2022-08-09T10:41:57.125Z,2.20
2022-08-09T10:44:29.914Z,2.43
2022-08-09T10:48:17.296Z,2.13
2022-08-09T10:50:30.862Z,1.97
2022-08-09T10:53:10.562Z,2.10
2022-08-09T10:55:58.188Z,1.70
2022-08-09T10:58:33.875Z,2.50
2022-08-09T11:03:02.016Z,2.40
2022-08-09T11:04:28.577Z,2.50
2022-08-09T11:07:57.848Z,1.77
2022-08-09T11:11:08.364Z,1.80
2022-08-09T11:13:50.105Z,2.17
2022-08-09T11:16:47.547Z,2.13
2022-08-09T11:20:19.617Z,2.30
2022-08-09T11:23:07.106Z,1.90
2022-08-09T11:25:51.523Z,2.27
2022-08-09T11:28:55.990Z,2.90
2022-08-09T11:31:49.549Z,2.10
2022-08-09T11:34:28.163Z,2.03
2022-08-09T11:37:00.466Z,2.33
2022-08-09T11:39:33.582Z,2.33
2022-08-09T11:42:14.927Z,2.10
2022-08-09T11:44:48.636Z,2.40
2022-08-09T11:47:17.373Z,2.10
2022-08-09T11:51:19.123Z,2.50
2022-08-09T11:53:57.610Z,2.03
2022-08-09T11:56:41.772Z,1.80
2022-08-09T11:59:30.144Z,2.00
2022-08-09T12:02:34.265Z,2.00
2022-08-09T12:04:58.964Z,2.20
2022-08-09T12:07:41.363Z,1.80
2022-08-09T12:10:38.891Z,2.08
2022-08-09T12:13:03.844Z,2.13
2022-08-09T12:15:51.946Z,1.90
2022-08-09T12:18:25.874Z,2.10
2022-08-09T12:21:00.722Z,2.20
2022-08-09T12:23:56.681Z,2.17
2022-08-09T12:26:26.247Z,2.00
2022-08-09T12:29:12.802Z,1.80
2022-08-09T12:31:59.132Z,2.10
2022-08-09T12:34:39.807Z,2.03
2022-08-09T12:37:23.564Z,2.33
2022-08-09T12:40:08.969Z,1.87
2022-08-09T12:42:43.040Z,1.93
2022-08-09T12:45:33.671Z,2.30
2022-08-09T12:48:01.411Z,1.73
2022-08-09T12:50:30.803Z,1.90
2022-08-09T12:53:18.011Z,2.00
2022-08-09T12:56:14.375Z,2.00
2022-08-09T12:58:42.520Z,2.20
2022-08-09T13:01:28.359Z,1.70
2022-08-09T13:04:00.436Z,2.00
2022-08-09T13:06:34.674Z,2.20
2022-08-09T13:09:11.227Z,1.90
2022-08-09T13:11:49.704Z,1.87
2022-08-09T13:14:43.893Z,1.50
2022-08-09T13:17:44.274Z,2.00
2022-08-09T13:20:17.502Z,1.70
2022-08-09T13:23:06.154Z,2.03
2022-08-09T13:25:52.980Z,1.83
2022-08-09T13:28:34.097Z,2.20
2022-08-09T13:32:12.594Z,1.90
2022-08-09T13:33:58.300Z,1.80
2022-08-09T13:36:40.309Z,1.80
2022-08-09T13:41:18.840Z,2.23
2022-08-09T13:42:04.916Z,2.10
2022-08-09T13:44:34.823Z,2.10
2022-08-09T13:47:26.520Z,2.30
2022-08-09T13:49:58.018Z,2.10
2022-08-09T13:52:30.591Z,2.13
2022-08-09T13:55:04.593Z,2.10
2022-08-09T13:57:39.696Z,2.20
2022-08-09T14:00:18.445Z,2.20
2022-08-09T14:03:04.082Z,2.00
2022-08-09T14:05:59.481Z,2.17
2022-08-09T14:08:31.357Z,2.83
2022-08-09T14:11:01.087Z,2.30
2022-08-09T14:14:22.485Z,2.00
2022-08-09T14:16:28.561Z,2.03
2022-08-09T14:18:58.390Z,2.10
2022-08-09T14:21:29.506Z,2.77
2022-08-09T14:24:05.542Z,2.00
2022-08-09T14:26:51.188Z,2.20
2022-08-09T14:30:04.197Z,2.20
2022-08-09T14:32:11.071Z,2.20
2022-08-09T14:34:41.702Z,2.10
2022-08-09T14:37:11.005Z,2.00
2022-08-09T14:39:47.455Z,2.00
2022-08-09T14:42:30.357Z,2.00
2022-08-09T14:46:57.564Z,2.05
2022-08-09T14:47:59.732Z,2.13
2022-08-09T14:50:33.062Z,2.42
2022-08-09T14:53:06.274Z,2.20
2022-08-09T14:55:42.039Z,2.00
2022-08-09T14:58:12.163Z,1.93
2022-08-09T15:00:42.501Z,1.77
2022-08-09T15:03:20.549Z,2.17
2022-08-09T15:05:59.749Z,2.33
2022-08-09T15:08:32.879Z,2.57
2022-08-09T15:11:07.419Z,2.17
2022-08-09T15:13:48.384Z,2.03
2022-08-09T15:16:30.379Z,2.03
2022-08-09T15:19:02.611Z,2.20
2022-08-09T15:21:57.232Z,1.97
2022-08-09T15:24:29.153Z,2.30
2022-08-09T15:26:58.039Z,2.07
2022-08-09T15:30:55.747Z,2.30
2022-08-09T15:32:28.905Z,2.10
2022-08-09T15:35:01.912Z,2.47
2022-08-09T15:37:56.773Z,2.23
2022-08-09T15:40:36.874Z,2.53
2022-08-09T15:43:05.729Z,2.07
2022-08-09T15:45:51.891Z,2.33
2022-08-09T15:48:29.308Z,2.53
2022-08-09T15:51:00.500Z,2.60
2022-08-09T15:54:03.756Z,2.20
2022-08-09T15:56:21.005Z,2.30
2022-08-09T15:58:52.562Z,2.58
2022-08-09T16:01:21.529Z,2.10
2022-08-09T16:03:51.002Z,2.23
2022-08-09T16:06:32.755Z,2.37
2022-08-09T16:09:04.949Z,2.03
2022-08-09T16:11:34.113Z,2.00
2022-08-09T16:14:07.722Z,2.03
2022-08-09T16:16:39.183Z,2.30
2022-08-09T16:21:52.050Z,1.90
2022-08-09T16:24:33.022Z,2.40
2022-08-09T16:27:05.217Z,2.33
2022-08-09T16:29:37.286Z,2.10
2022-08-09T16:32:18.561Z,2.33
2022-08-09T16:34:57.980Z,2.63
2022-08-09T16:37:55.604Z,2.27
2022-08-09T16:40:29.727Z,2.40
2022-08-09T16:43:07.953Z,2.63
2022-08-09T16:45:37.249Z,2.50
2022-08-09T16:48:37.913Z,2.90
2022-08-09T16:51:08.201Z,2.10
2022-08-09T16:54:09.129Z,2.27
2022-08-09T16:56:32.494Z,2.37
2022-08-09T16:59:06.925Z,2.43
2022-08-09T17:01:43.768Z,2.10
2022-08-09T17:04:20.036Z,2.23
2022-08-09T17:08:46.751Z,2.90
2022-08-09T17:09:47.267Z,2.30
2022-08-09T17:12:17.019Z,2.40
2022-08-09T17:14:49.042Z,2.20
2022-08-09T17:17:27.047Z,2.43
2022-08-09T17:20:29.797Z,2.60
2022-08-09T17:22:49.791Z,2.20
2022-08-09T17:25:19.727Z,2.37
2022-08-09T17:27:54.411Z,2.17
2022-08-09T17:30:28.076Z,2.07
2022-08-09T17:33:04.823Z,2.52
2022-08-09T17:35:41.237Z,2.43
2022-08-09T17:38:32.404Z,2.37
2022-08-09T17:41:02.238Z,2.60
2022-08-09T17:43:33.843Z,2.77
2022-08-09T17:46:07.296Z,3.20
2022-08-09T17:48:39.769Z,2.83
2022-08-09T17:51:19.290Z,2.60
2022-08-09T17:53:53.645Z,2.70
2022-08-09T17:56:26.587Z,2.37
2022-08-09T17:58:59.651Z,2.43
2022-08-09T18:01:40.905Z,2.40
2022-08-09T18:04:19.055Z,2.53
2022-08-09T18:06:54.169Z,2.60
2022-08-09T18:09:40.703Z,2.80
2022-08-09T18:12:17.045Z,2.60
2022-08-09T18:14:54.768Z,2.50
2022-08-09T18:18:02.628Z,2.83
2022-08-09T18:21:01.832Z,2.57
2022-08-09T18:23:04.911Z,3.00
2022-08-09T18:25:50.292Z,2.43
2022-08-09T18:30:34.485Z,3.17
2022-08-09T18:31:13.789Z,2.73
2022-08-09T18:33:48.872Z,3.10
2022-08-09T18:36:25.624Z,2.77
2022-08-09T18:39:03.008Z,3.10
2022-08-09T18:41:34.537Z,2.63
2022-08-09T18:44:12.864Z,2.80
2022-08-09T18:46:46.262Z,3.20
2022-08-09T18:49:23.713Z,3.60
2022-08-09T18:51:55.465Z,2.90
2022-08-09T18:54:28.780Z,3.73
2022-08-09T18:57:05.243Z,3.93
2022-08-09T18:59:48.420Z,3.77
2022-08-09T19:02:19.149Z,4.30
2022-08-09T19:05:03.286Z,4.50
2022-08-09T19:07:33.449Z,4.43
2022-08-09T19:10:17.074Z,4.53
2022-08-09T19:13:01.789Z,5.03
2022-08-09T19:15:36.429Z,5.73
2022-08-09T19:18:06.134Z,5.40
2022-08-09T19:20:45.988Z,5.47
2022-08-09T19:24:32.300Z,6.10
2022-08-09T19:26:14.845Z,7.27
2022-08-09T19:28:48.862Z,6.43
2022-08-09T19:31:17.942Z,7.23
2022-08-09T19:33:46.734Z,6.77
2022-08-09T19:36:15.445Z,6.30
2022-08-09T19:38:45.606Z,4.37
2022-08-09T19:41:32.627Z,3.92
2022-08-09T19:44:05.022Z,4.17
2022-08-09T19:46:35.326Z,3.60
2022-08-09T19:50:06.598Z,3.60
2022-08-09T19:51:56.909Z,3.40
2022-08-09T19:54:26.498Z,3.90
2022-08-09T19:56:56.081Z,3.80
2022-08-09T19:59:58.999Z,3.90
2022-08-09T20:04:10.570Z,4.00
2022-08-09T20:05:11.807Z,3.90
2022-08-09T20:08:00.168Z,4.23
2022-08-09T20:10:34.350Z,4.63
2022-08-09T20:13:07.903Z,5.37
2022-08-09T20:16:35.162Z,4.73
2022-08-09T20:18:28.038Z,4.50
2022-08-09T20:20:57.686Z,5.00
2022-08-09T20:23:39.766Z,5.33
2022-08-09T20:26:09.745Z,4.57
2022-08-09T20:28:48.469Z,4.50
2022-08-09T20:31:18.973Z,4.20
2022-08-09T20:33:52.383Z,4.13
2022-08-09T20:36:27.733Z,5.20
2022-08-09T20:39:28.127Z,4.10
2022-08-09T20:41:48.940Z,4.90
2022-08-09T20:44:26.356Z,4.73
2022-08-09T20:46:55.964Z,4.43
2022-08-09T20:49:27.003Z,4.47
2022-08-09T20:51:57.486Z,4.60
2022-08-09T20:54:30.471Z,4.30
2022-08-09T20:56:59.237Z,4.40
2022-08-09T21:00:19.292Z,5.17
2022-08-09T21:02:24.000Z,4.80
2022-08-09T21:05:54.620Z,4.43
2022-08-09T21:07:44.403Z,4.73
2022-08-09T21:10:13.362Z,4.37
2022-08-09T21:15:34.474Z,4.73
2022-08-09T21:18:29.567Z,4.97
2022-08-09T21:20:54.166Z,4.17
2022-08-09T21:23:26.573Z,4.40
2022-08-09T21:26:12.267Z,4.90
2022-08-09T21:28:55.956Z,4.63
2022-08-09T21:31:49.284Z,4.43
2022-08-09T21:34:28.701Z,4.70
2022-08-09T21:36:58.481Z,5.07
2022-08-09T21:39:28.134Z,4.70
2022-08-09T21:42:11.112Z,4.50
2022-08-09T21:44:42.630Z,4.40
2022-08-09T21:47:17.454Z,4.40
2022-08-09T21:49:48.976Z,4.37
2022-08-09T21:52:20.488Z,4.77
2022-08-09T21:54:57.182Z,4.73
2022-08-09T21:57:38.278Z,4.77
2022-08-09T22:00:25.224Z,4.53
2022-08-09T22:02:58.390Z,4.70
2022-08-09T22:05:36.690Z,4.67
2022-08-09T22:08:12.987Z,4.93
2022-08-09T22:11:50.024Z,5.13
2022-08-09T22:13:35.662Z,4.80
2022-08-09T22:16:08.529Z,4.73
2022-08-09T22:18:54.583Z,5.70
2022-08-09T22:21:27.467Z,4.97
2022-08-09T22:24:17.054Z,4.97
2022-08-09T22:26:51.110Z,4.37
2022-08-09T22:29:28.946Z,4.67
2022-08-09T22:32:29.502Z,4.83
2022-08-09T22:35:06.091Z,4.73
2022-08-09T22:37:40.325Z,4.83
2022-08-09T22:40:20.147Z,4.90
2022-08-09T22:42:49.090Z,4.63
2022-08-09T22:48:12.886Z,5.10
2022-08-09T22:48:29.855Z,4.33
2022-08-09T22:50:55.630Z,4.80
2022-08-09T22:53:24.196Z,5.43
2022-08-09T22:56:29.755Z,5.23
2022-08-09T22:58:41.915Z,5.10
2022-08-09T23:01:11.378Z,5.00
2022-08-09T23:04:04.236Z,5.00
2022-08-09T23:06:50.776Z,4.87
2022-08-09T23:09:19.458Z,4.97
2022-08-09T23:11:48.175Z,5.07
2022-08-09T23:14:17.645Z,4.30
2022-08-09T23:17:05.908Z,4.60
2022-08-09T23:20:00.610Z,4.70
2022-08-09T23:22:23.358Z,5.30
2022-08-09T23:24:52.139Z,4.97
2022-08-09T23:27:21.118Z,4.90
2022-08-09T23:29:49.736Z,4.67
2022-08-09T23:32:18.747Z,4.87
2022-08-09T23:34:47.450Z,4.70
2022-08-09T23:37:17.154Z,5.57
2022-08-09T23:39:50.429Z,4.40
2022-08-09T23:42:19.003Z,4.83
2022-08-09T23:44:47.557Z,5.03
2022-08-09T23:47:16.165Z,4.67
2022-08-09T23:49:44.624Z,4.90
2022-08-09T23:52:13.144Z,4.77
2022-08-09T23:54:45.427Z,5.23
2022-08-09T23:57:14.494Z,4.83
